createdAt,value
2023-07-04T00:02:22.008Z,99.90
2023-07-04T00:04:49.252Z,99.90
2023-07-04T00:07:16.668Z,99.90
2023-07-04T00:09:44.113Z,99.90
2023-07-04T00:12:11.168Z,99.90
2023-07-04T00:14:38.192Z,99.90
2023-07-04T00:17:06.286Z,99.90
2023-07-04T00:19:33.498Z,99.90
2023-07-04T00:22:00.603Z,99.90
2023-07-04T00:24:27.680Z,99.90
2023-07-04T00:26:57.493Z,99.90
2023-07-04T00:29:24.762Z,99.90
2023-07-04T00:31:51.838Z,99.90
2023-07-04T00:34:18.940Z,99.90
2023-07-04T00:36:46.456Z,99.90
2023-07-04T00:39:13.556Z,99.90
2023-07-04T00:41:42.166Z,99.90
2023-07-04T00:44:20.609Z,99.90
2023-07-04T00:46:54.630Z,99.90
2023-07-04T00:49:23.964Z,99.90
2023-07-04T00:52:01.625Z,99.90
2023-07-04T00:54:35.636Z,99.90
2023-07-04T00:57:05.689Z,99.90
2023-07-04T00:59:38.980Z,99.90
2023-07-04T01:02:07.181Z,99.90
2023-07-04T01:04:34.322Z,99.90
2023-07-04T01:07:08.160Z,99.90
2023-07-04T01:09:35.962Z,99.90
2023-07-04T01:12:03.394Z,99.90
2023-07-04T01:14:30.488Z,99.90
2023-07-04T01:16:57.868Z,99.90
2023-07-04T01:19:26.317Z,99.90
2023-07-04T01:21:55.687Z,99.90
2023-07-04T01:24:25.890Z,99.90
2023-07-04T01:26:53.003Z,99.90
2023-07-04T01:29:20.287Z,99.90
2023-07-04T01:31:47.461Z,99.90
2023-07-04T01:34:14.718Z,99.90
2023-07-04T01:36:43.005Z,99.90
2023-07-04T01:39:10.364Z,99.90
2023-07-04T01:41:38.020Z,99.90
2023-07-04T01:44:06.141Z,99.90
2023-07-04T01:46:33.419Z,99.90
2023-07-04T01:49:00.630Z,99.90
2023-07-04T01:51:31.534Z,99.90
2023-07-04T01:53:58.668Z,99.90
2023-07-04T01:56:25.704Z,99.90
2023-07-04T01:58:52.783Z,99.90
2023-07-04T02:01:20.285Z,99.90
2023-07-04T02:03:47.358Z,99.90
2023-07-04T02:06:17.965Z,99.90
2023-07-04T02:08:45.002Z,99.90
2023-07-04T02:11:13.132Z,99.90
2023-07-04T02:13:40.460Z,99.90
2023-07-04T02:16:07.958Z,99.90
2023-07-04T02:18:35.054Z,99.90
2023-07-04T02:21:02.113Z,99.90
2023-07-04T02:23:29.191Z,99.90
2023-07-04T02:25:56.351Z,99.90
2023-07-04T02:28:23.488Z,99.90
2023-07-04T02:30:56.905Z,99.90
2023-07-04T02:33:24.082Z,99.90
2023-07-04T02:35:51.699Z,99.90
2023-07-04T02:38:20.504Z,99.90
2023-07-04T02:40:48.181Z,99.90
2023-07-04T02:43:15.810Z,99.90
2023-07-04T02:45:43.179Z,99.90
2023-07-04T02:48:12.659Z,99.90
2023-07-04T02:50:39.772Z,99.90
2023-07-04T02:53:06.841Z,99.90
2023-07-04T02:55:34.714Z,99.90
2023-07-04T02:58:02.825Z,99.90
2023-07-04T03:00:30.762Z,99.90
2023-07-04T03:02:58.031Z,99.90
2023-07-04T03:05:26.863Z,99.90
2023-07-04T03:07:53.988Z,99.90
2023-07-04T03:10:21.253Z,99.90
2023-07-04T03:12:48.407Z,99.90
2023-07-04T03:15:16.128Z,99.90
2023-07-04T03:17:50.196Z,99.90
2023-07-04T03:20:17.861Z,99.90
2023-07-04T03:22:47.887Z,99.90
2023-07-04T03:25:16.980Z,99.90
2023-07-04T03:27:46.411Z,99.90
2023-07-04T03:30:16.464Z,99.90
2023-07-04T03:32:45.831Z,99.90
2023-07-04T03:35:13.075Z,99.90
2023-07-04T03:37:43.155Z,99.90
2023-07-04T03:40:11.468Z,99.90
2023-07-04T03:42:39.157Z,99.90
2023-07-04T03:45:06.520Z,99.90
2023-07-04T03:47:33.695Z,99.90
2023-07-04T03:50:00.891Z,99.90
2023-07-04T03:52:27.914Z,99.90
2023-07-04T03:54:55.293Z,99.90
2023-07-04T03:57:22.330Z,99.90
2023-07-04T03:59:49.334Z,99.90
2023-07-04T04:02:16.437Z,99.90
2023-07-04T04:04:43.529Z,99.90
2023-07-04T04:07:10.949Z,99.90
2023-07-04T04:09:38.367Z,99.90
2023-07-04T04:12:05.822Z,99.90
2023-07-04T04:14:32.888Z,99.90
2023-07-04T04:17:00.030Z,99.90
2023-07-04T04:19:27.176Z,99.90
2023-07-04T04:21:54.312Z,99.90
2023-07-04T04:24:21.655Z,99.90
2023-07-04T04:26:48.990Z,99.90
2023-07-04T04:29:20.488Z,99.90
2023-07-04T04:31:47.633Z,99.90
2023-07-04T04:34:14.731Z,99.90
2023-07-04T04:36:41.745Z,99.90
2023-07-04T04:39:08.817Z,99.90
2023-07-04T04:41:37.507Z,99.90
2023-07-04T04:44:06.052Z,99.90
2023-07-04T04:46:36.234Z,99.90
2023-07-04T04:49:06.390Z,99.90
2023-07-04T04:51:33.416Z,99.90
2023-07-04T04:54:02.026Z,99.90
2023-07-04T04:56:29.503Z,99.90
2023-07-04T04:58:57.184Z,99.90
2023-07-04T05:01:24.941Z,99.90
2023-07-04T05:03:55.026Z,99.90
2023-07-04T05:06:23.013Z,99.90
2023-07-04T05:08:50.008Z,99.90
2023-07-04T05:11:17.169Z,99.90
2023-07-04T05:13:46.338Z,99.90
2023-07-04T05:16:14.415Z,99.90
2023-07-04T05:18:42.003Z,99.90
2023-07-04T05:21:10.085Z,99.90
2023-07-04T05:23:37.730Z,99.90
2023-07-04T05:26:05.849Z,99.90
2023-07-04T05:28:32.966Z,99.90
2023-07-04T05:31:03.938Z,99.90
2023-07-04T05:33:31.034Z,99.90
2023-07-04T05:36:07.124Z,99.90
2023-07-04T05:38:34.456Z,99.90
2023-07-04T05:41:01.641Z,99.90
2023-07-04T05:43:30.413Z,99.90
2023-07-04T05:45:57.864Z,99.90
2023-07-04T05:48:25.105Z,99.90
2023-07-04T05:50:55.893Z,99.90
2023-07-04T05:53:24.251Z,99.90
2023-07-04T05:55:54.472Z,99.90
2023-07-04T05:58:21.486Z,99.90
2023-07-04T06:00:48.797Z,99.90
2023-07-04T06:03:19.015Z,99.90
2023-07-04T06:05:46.379Z,99.90
2023-07-04T06:08:13.499Z,99.90
2023-07-04T06:10:40.686Z,99.90
2023-07-04T06:13:07.701Z,99.90
2023-07-04T06:15:40.458Z,99.90
2023-07-04T06:18:07.689Z,99.90
2023-07-04T06:20:34.720Z,99.90
2023-07-04T06:23:01.859Z,99.90
2023-07-04T06:25:28.975Z,99.90
2023-07-04T06:27:56.008Z,99.90
2023-07-04T06:30:23.269Z,99.90
2023-07-04T06:32:50.318Z,99.90
2023-07-04T06:35:17.510Z,99.90
2023-07-04T06:37:44.908Z,99.90
2023-07-04T06:40:12.042Z,99.90
2023-07-04T06:42:39.046Z,99.90
2023-07-04T06:45:06.742Z,99.90
2023-07-04T06:47:34.085Z,99.90
2023-07-04T06:50:02.297Z,99.90
2023-07-04T06:52:30.151Z,99.90
2023-07-04T06:54:57.224Z,99.90
2023-07-04T06:57:24.245Z,99.90
2023-07-04T06:59:51.787Z,99.90
2023-07-04T07:02:19.001Z,99.90
2023-07-04T07:04:46.185Z,99.90
2023-07-04T07:07:13.275Z,99.90
2023-07-04T07:09:41.423Z,99.90
2023-07-04T07:12:09.200Z,99.90
2023-07-04T07:14:36.444Z,99.90
2023-07-04T07:17:05.377Z,99.90
2023-07-04T07:19:32.888Z,99.90
2023-07-04T07:22:03.056Z,99.90
2023-07-04T07:24:30.423Z,99.90
2023-07-04T07:26:58.532Z,99.90
2023-07-04T07:29:25.826Z,99.90
2023-07-04T07:31:53.109Z,99.90
2023-07-04T07:34:20.164Z,99.90
2023-07-04T07:36:47.352Z,99.90
2023-07-04T07:39:15.681Z,99.90
2023-07-04T07:41:44.642Z,99.90
2023-07-04T07:44:11.783Z,99.90
2023-07-04T07:46:39.106Z,99.90
2023-07-04T07:49:06.258Z,99.90
2023-07-04T07:51:33.425Z,99.90
2023-07-04T07:54:00.677Z,99.90
2023-07-04T07:56:31.062Z,99.90
2023-07-04T07:58:58.064Z,99.90
2023-07-04T08:01:32.287Z,99.90
2023-07-04T08:03:59.690Z,99.90
2023-07-04T08:06:27.869Z,99.90
2023-07-04T08:08:55.165Z,99.90
2023-07-04T08:11:22.240Z,99.90
2023-07-04T08:13:49.327Z,99.90
2023-07-04T08:16:20.545Z,99.90
2023-07-04T08:18:47.764Z,99.90
2023-07-04T08:21:14.878Z,99.90
2023-07-04T08:23:42.169Z,99.90
2023-07-04T08:26:14.310Z,99.90
2023-07-04T08:28:41.336Z,99.90
2023-07-04T08:31:09.905Z,99.90
2023-07-04T08:33:37.153Z,99.90
2023-07-04T08:36:05.260Z,99.90
2023-07-04T08:38:32.316Z,99.90
2023-07-04T08:40:59.355Z,99.90
2023-07-04T08:43:29.363Z,99.90
2023-07-04T08:45:56.486Z,99.90
2023-07-04T08:48:24.404Z,99.90
2023-07-04T08:50:51.631Z,99.90
2023-07-04T08:53:19.428Z,99.90
2023-07-04T08:55:51.646Z,99.90
2023-07-04T08:58:19.012Z,99.90
2023-07-04T09:00:46.042Z,99.90
2023-07-04T09:03:16.236Z,99.90
2023-07-04T09:05:46.628Z,99.90
2023-07-04T09:08:29.162Z,99.90
2023-07-04T09:11:03.688Z,99.90
2023-07-04T09:13:31.518Z,99.90
2023-07-04T09:15:59.433Z,99.90
2023-07-04T09:18:26.558Z,99.90
2023-07-04T09:20:58.340Z,99.90
2023-07-04T09:23:25.446Z,99.90
2023-07-04T09:25:54.017Z,99.90
2023-07-04T09:28:21.100Z,99.90
2023-07-04T09:30:51.072Z,99.90
2023-07-04T09:33:18.866Z,99.90
2023-07-04T09:35:45.904Z,99.90
2023-07-04T09:38:12.964Z,99.90
2023-07-04T09:40:49.090Z,99.90
2023-07-04T09:43:26.421Z,99.90
2023-07-04T09:45:54.606Z,99.90
2023-07-04T09:48:25.192Z,99.90
2023-07-04T09:50:52.486Z,99.90
2023-07-04T09:53:19.851Z,99.90
2023-07-04T09:56:00.161Z,99.90
2023-07-04T09:58:27.300Z,99.90
2023-07-04T10:01:01.604Z,99.90
2023-07-04T10:03:28.907Z,99.90
2023-07-04T10:05:56.179Z,99.90
2023-07-04T10:08:23.254Z,99.90
2023-07-04T10:10:50.354Z,99.90
2023-07-04T10:13:18.004Z,99.90
2023-07-04T10:15:45.710Z,99.90
2023-07-04T10:18:39.215Z,99.90
2023-07-04T10:21:06.256Z,99.90
2023-07-04T10:23:33.281Z,99.90
2023-07-04T10:26:00.596Z,99.90
2023-07-04T10:28:28.128Z,99.90
2023-07-04T10:31:08.023Z,99.90
2023-07-04T10:34:13.703Z,99.90
2023-07-04T10:36:40.720Z,99.90
2023-07-04T10:39:08.517Z,99.90
2023-07-04T10:41:47.281Z,99.90
2023-07-04T10:44:21.540Z,99.90
2023-07-04T10:46:50.142Z,99.90
2023-07-04T10:49:17.870Z,99.90
2023-07-04T10:51:45.073Z,99.90
2023-07-04T10:54:12.833Z,99.90
2023-07-04T10:56:41.586Z,99.90
2023-07-04T10:59:11.629Z,99.90
2023-07-04T11:01:40.210Z,99.90
2023-07-04T11:04:10.714Z,99.90
2023-07-04T11:06:41.405Z,99.90
2023-07-04T11:09:10.674Z,99.90
2023-07-04T11:11:38.760Z,99.90
2023-07-04T11:14:07.982Z,99.90
2023-07-04T11:16:37.122Z,99.90
2023-07-04T11:19:05.348Z,99.90
2023-07-04T11:21:32.414Z,99.90
2023-07-04T11:24:15.798Z,99.90
2023-07-04T11:26:46.943Z,99.90
2023-07-04T11:29:17.162Z,99.90
2023-07-04T11:32:06.127Z,99.90
2023-07-04T11:34:49.646Z,99.90
2023-07-04T11:37:18.026Z,99.90
2023-07-04T11:39:48.092Z,99.90
2023-07-04T11:42:20.001Z,99.90
2023-07-04T11:45:00.426Z,99.90
2023-07-04T11:47:50.439Z,99.90
2023-07-04T11:50:21.361Z,99.90
2023-07-04T11:52:53.680Z,99.90
2023-07-04T11:55:23.294Z,99.90
2023-07-04T11:58:08.711Z,99.90
2023-07-04T12:00:41.777Z,99.90
2023-07-04T12:03:22.234Z,99.90
2023-07-04T12:05:57.676Z,99.90
2023-07-04T12:08:38.556Z,99.90
2023-07-04T12:11:10.027Z,99.90
2023-07-04T12:13:37.869Z,99.30
2023-07-04T12:16:05.068Z,99.80
2023-07-04T12:18:36.114Z,99.90
2023-07-04T12:21:03.229Z,99.90
2023-07-04T12:23:31.550Z,99.90
2023-07-04T12:26:00.581Z,99.90
2023-07-04T12:28:28.622Z,99.90
2023-07-04T12:31:41.037Z,99.90
2023-07-04T12:33:49.595Z,99.90
2023-07-04T12:36:17.184Z,99.90
2023-07-04T12:38:47.829Z,99.90
2023-07-04T12:41:18.658Z,99.50
2023-07-04T12:51:25.214Z,99.30
2023-07-04T12:53:52.335Z,99.10
2023-07-04T12:56:19.406Z,99.10
2023-07-04T12:58:46.684Z,98.50
2023-07-04T13:01:15.898Z,97.30
2023-07-04T13:03:44.888Z,97.80
2023-07-04T13:06:30.430Z,97.30
2023-07-04T13:08:58.165Z,95.40
2023-07-04T13:11:25.414Z,95.80
2023-07-04T13:13:52.881Z,95.80
2023-07-04T13:16:23.352Z,95.30
2023-07-04T13:18:50.514Z,94.80
2023-07-04T13:21:28.200Z,95.40
2023-07-04T13:26:26.910Z,95.80
2023-07-04T13:33:55.869Z,94.80
2023-07-04T13:36:24.063Z,94.00
2023-07-04T13:41:24.070Z,94.10
2023-07-04T13:46:24.411Z,94.40
2023-07-04T13:48:51.943Z,94.20
2023-07-04T13:51:20.829Z,93.70
2023-07-04T13:53:47.852Z,92.40
2023-07-04T13:56:14.922Z,92.90
2023-07-04T13:58:42.027Z,93.50
2023-07-04T14:06:09.112Z,93.50
2023-07-04T14:08:37.091Z,92.60
2023-07-04T14:11:04.309Z,91.80
2023-07-04T14:13:35.606Z,91.10
2023-07-04T14:21:07.646Z,93.10
2023-07-04T14:23:34.856Z,92.40
2023-07-04T14:26:01.923Z,92.60
2023-07-04T14:28:29.246Z,92.50
2023-07-04T14:30:58.057Z,91.60
2023-07-04T14:33:25.569Z,91.20
2023-07-04T14:35:52.673Z,90.90
2023-07-04T14:38:19.764Z,90.60
2023-07-04T14:43:16.790Z,91.00
2023-07-04T14:45:43.815Z,90.80
2023-07-04T14:48:10.845Z,90.70
2023-07-04T14:50:38.487Z,91.00
2023-07-04T14:53:05.507Z,90.00
2023-07-04T14:55:32.601Z,88.70
2023-07-04T14:57:59.629Z,89.40
2023-07-04T15:00:34.177Z,90.00
2023-07-04T15:03:01.294Z,89.20
2023-07-04T15:05:28.421Z,89.90
2023-07-04T15:07:55.509Z,88.30
2023-07-04T15:10:22.663Z,88.80
2023-07-04T15:12:49.687Z,90.60
2023-07-04T15:15:16.877Z,90.60
2023-07-04T15:17:43.978Z,90.60
2023-07-04T15:20:11.422Z,90.10
2023-07-04T15:22:39.677Z,89.60
2023-07-04T15:25:06.849Z,88.30
2023-07-04T15:27:33.896Z,90.50
2023-07-04T15:30:00.938Z,91.30
2023-07-04T15:32:27.998Z,90.70
2023-07-04T15:34:55.259Z,90.60
2023-07-04T15:37:24.240Z,90.70
2023-07-04T15:39:55.221Z,90.30
2023-07-04T15:42:23.079Z,86.30
2023-07-04T15:44:50.169Z,87.40
2023-07-04T15:47:18.423Z,86.50
2023-07-04T15:49:45.488Z,87.30
2023-07-04T15:52:12.566Z,85.20
2023-07-04T15:54:39.640Z,86.00
2023-07-04T15:57:06.916Z,87.10
2023-07-04T15:59:35.057Z,87.40
2023-07-04T16:02:02.175Z,87.70
2023-07-04T16:04:29.299Z,88.30
2023-07-04T16:06:58.556Z,88.00
2023-07-04T16:09:26.141Z,87.80
2023-07-04T16:11:53.194Z,88.40
2023-07-04T16:14:20.237Z,85.50
2023-07-04T16:16:47.304Z,82.80
2023-07-04T16:19:14.451Z,84.90
2023-07-04T16:21:41.649Z,87.20
2023-07-04T16:24:08.736Z,87.90
2023-07-04T16:26:35.975Z,86.50
2023-07-04T16:29:03.033Z,86.40
2023-07-04T16:31:30.080Z,87.00
2023-07-04T16:33:57.457Z,86.50
2023-07-04T16:36:24.563Z,85.80
2023-07-04T16:38:51.598Z,83.90
2023-07-04T16:41:18.618Z,84.20
2023-07-04T16:43:45.714Z,83.40
2023-07-04T16:46:12.857Z,84.60
2023-07-04T16:48:39.885Z,84.90
2023-07-04T16:51:07.092Z,85.30
2023-07-04T16:53:34.179Z,85.70
2023-07-04T16:56:01.838Z,84.80
2023-07-04T16:58:29.192Z,83.90
2023-07-04T17:00:56.300Z,83.80
2023-07-04T17:03:23.552Z,82.90
2023-07-04T17:05:51.150Z,83.30
2023-07-04T17:08:19.490Z,81.50
2023-07-04T17:10:49.524Z,83.50
2023-07-04T17:13:35.804Z,83.40
2023-07-04T17:16:03.762Z,83.90
2023-07-04T17:18:30.845Z,85.80
2023-07-04T17:20:57.911Z,84.90
2023-07-04T17:23:24.986Z,84.90
2023-07-04T17:25:53.687Z,84.50
2023-07-04T17:28:21.050Z,84.70
2023-07-04T17:30:54.696Z,85.60
2023-07-04T17:33:21.856Z,85.30
2023-07-04T17:35:55.405Z,84.20
2023-07-04T17:38:24.478Z,85.20
2023-07-04T17:40:52.041Z,84.60
2023-07-04T17:43:19.451Z,81.30
2023-07-04T17:45:50.958Z,83.10
2023-07-04T17:48:18.617Z,83.40
2023-07-04T17:50:45.644Z,83.80
2023-07-04T17:53:13.848Z,84.20
2023-07-04T17:55:41.555Z,82.50
2023-07-04T17:58:09.222Z,83.00
2023-07-04T18:00:36.378Z,83.50
2023-07-04T18:03:03.670Z,82.90
2023-07-04T18:05:30.806Z,83.50
2023-07-04T18:07:57.846Z,84.40
2023-07-04T18:10:26.129Z,85.90
2023-07-04T18:12:53.280Z,87.00
2023-07-04T18:15:20.482Z,86.40
2023-07-04T18:17:47.574Z,86.50
2023-07-04T18:20:14.708Z,85.80
2023-07-04T18:22:41.777Z,83.80
2023-07-04T18:25:08.972Z,84.30
2023-07-04T18:27:37.313Z,84.50
2023-07-04T18:30:04.741Z,84.90
2023-07-04T18:32:31.953Z,86.10
2023-07-04T18:34:59.037Z,86.80
2023-07-04T18:37:27.191Z,90.00
2023-07-04T18:39:54.416Z,90.60
2023-07-04T18:42:21.566Z,91.60
2023-07-04T18:44:48.671Z,91.70
2023-07-04T18:47:15.874Z,92.00
2023-07-04T18:49:43.001Z,92.20
2023-07-04T18:52:10.024Z,92.50
2023-07-04T18:54:37.714Z,92.90
2023-07-04T18:57:04.976Z,93.10
2023-07-04T18:59:32.128Z,93.70
2023-07-04T19:01:59.259Z,93.40
2023-07-04T19:04:26.889Z,93.70
2023-07-04T19:06:54.845Z,93.90
2023-07-04T19:09:22.016Z,94.20
2023-07-04T19:11:49.444Z,94.40
2023-07-04T19:14:17.551Z,95.00
2023-07-04T19:16:47.434Z,95.10
2023-07-04T19:19:18.351Z,95.20
2023-07-04T19:21:50.847Z,95.30
2023-07-04T19:24:19.165Z,95.80
2023-07-04T19:26:46.509Z,95.90
2023-07-04T19:29:13.654Z,95.90
2023-07-04T19:31:41.130Z,95.80
2023-07-04T19:34:08.302Z,95.90
2023-07-04T19:36:35.335Z,96.40
2023-07-04T19:39:02.577Z,95.90
2023-07-04T19:41:30.346Z,95.90
2023-07-04T19:43:57.483Z,95.90
2023-07-04T19:46:24.759Z,96.10
2023-07-04T19:48:51.807Z,96.30
2023-07-04T19:51:21.430Z,96.40
2023-07-04T19:53:51.800Z,96.60
2023-07-04T19:56:19.808Z,96.70
2023-07-04T19:58:47.493Z,96.80
2023-07-04T20:01:15.315Z,97.00
2023-07-04T20:03:42.589Z,96.70
2023-07-04T20:06:10.249Z,96.90
2023-07-04T20:08:37.362Z,96.90
2023-07-04T20:11:04.397Z,97.10
2023-07-04T20:13:31.887Z,97.20
2023-07-04T20:15:59.829Z,97.30
2023-07-04T20:18:26.985Z,97.50
2023-07-04T20:20:54.424Z,98.00
2023-07-04T20:23:21.676Z,98.30
2023-07-04T20:25:50.131Z,98.50
2023-07-04T20:28:17.185Z,98.70
2023-07-04T20:30:44.204Z,98.90
2023-07-04T20:33:11.268Z,99.10
2023-07-04T20:35:38.366Z,99.10
2023-07-04T20:38:05.515Z,99.30
2023-07-04T20:40:32.851Z,99.40
2023-07-04T20:42:59.997Z,99.50
2023-07-04T20:45:27.017Z,99.60
2023-07-04T20:47:54.604Z,99.70
2023-07-04T20:50:26.934Z,99.90
2023-07-04T20:52:54.366Z,99.90
2023-07-04T20:55:21.399Z,99.90
2023-07-04T20:57:50.000Z,99.90
2023-07-04T21:00:18.849Z,99.90
2023-07-04T21:02:46.757Z,99.90
2023-07-04T21:05:14.620Z,99.90
2023-07-04T21:07:42.901Z,99.90
2023-07-04T21:10:10.469Z,99.90
2023-07-04T21:12:37.723Z,99.90
2023-07-04T21:15:05.430Z,99.90
2023-07-04T21:17:32.561Z,99.90
2023-07-04T21:19:59.997Z,99.90
2023-07-04T21:22:27.013Z,99.90
2023-07-04T21:24:54.531Z,99.90
2023-07-04T21:27:21.609Z,99.90
2023-07-04T21:29:49.256Z,99.90
2023-07-04T21:32:16.311Z,99.90
2023-07-04T21:34:43.384Z,99.90
2023-07-04T21:37:10.630Z,99.90
2023-07-04T21:39:37.684Z,99.90
2023-07-04T21:42:04.895Z,99.90
2023-07-04T21:44:31.917Z,99.90
2023-07-04T21:47:00.135Z,99.90
2023-07-04T21:49:28.347Z,99.90
2023-07-04T21:51:56.396Z,99.90
2023-07-04T21:54:23.656Z,99.90
2023-07-04T21:56:50.872Z,99.90
2023-07-04T21:59:17.885Z,99.90
2023-07-04T22:01:45.190Z,99.90
2023-07-04T22:04:12.514Z,99.90
2023-07-04T22:06:39.718Z,99.90
2023-07-04T22:09:06.803Z,99.90
2023-07-04T22:11:33.851Z,99.90
2023-07-04T22:14:01.349Z,99.90
2023-07-04T22:16:28.634Z,99.90
2023-07-04T22:18:57.715Z,99.90
2023-07-04T22:21:24.825Z,99.90
2023-07-04T22:23:52.329Z,99.90
2023-07-04T22:26:19.355Z,99.90
2023-07-04T22:28:49.155Z,99.90
2023-07-04T22:31:16.876Z,99.90
2023-07-04T22:33:45.411Z,99.90
2023-07-04T22:36:12.433Z,99.90
2023-07-04T22:38:39.459Z,99.90
2023-07-04T22:41:06.504Z,99.90
2023-07-04T22:43:33.531Z,99.90
2023-07-04T22:46:00.612Z,99.90
2023-07-04T22:48:27.720Z,99.90
2023-07-04T22:50:58.300Z,99.90
2023-07-04T22:53:26.318Z,99.90
2023-07-04T22:55:53.615Z,99.90
2023-07-04T22:58:20.972Z,99.90
2023-07-04T23:00:48.050Z,99.90
2023-07-04T23:03:16.527Z,99.90
2023-07-04T23:05:44.046Z,99.90
2023-07-04T23:08:11.517Z,99.90
2023-07-04T23:10:38.530Z,99.90
2023-07-04T23:13:05.542Z,99.90
2023-07-04T23:15:32.674Z,99.90
2023-07-04T23:18:00.282Z,99.90
2023-07-04T23:20:27.410Z,99.90
2023-07-04T23:22:54.509Z,99.90
2023-07-04T23:25:21.568Z,99.90
2023-07-04T23:27:48.664Z,99.90
2023-07-04T23:30:15.760Z,99.90
2023-07-04T23:32:43.076Z,99.90
2023-07-04T23:35:10.091Z,99.90
2023-07-04T23:37:37.093Z,99.90
2023-07-04T23:40:04.657Z,99.90
2023-07-04T23:42:32.308Z,99.90
2023-07-04T23:44:59.306Z,99.90
2023-07-04T23:47:26.341Z,99.90
2023-07-04T23:49:53.378Z,99.90
2023-07-04T23:52:20.478Z,99.90
2023-07-04T23:54:47.481Z,99.90
2023-07-04T23:57:14.534Z,99.90
2023-07-04T23:59:43.493Z,99.90
